CDT,Max TemperatureF,Mean TemperatureF,Min TemperatureF,Max Dew PointF,MeanDew PointF,Min DewpointF,Max Humidity, Mean Humidity, Min Humidity, Max Sea Level PressureIn, Mean Sea Level PressureIn, Min Sea Level PressureIn, Max VisibilityMiles, Mean VisibilityMiles, Min VisibilityMiles, Max Wind SpeedMPH, Mean Wind SpeedMPH, Max Gust SpeedMPH,PrecipitationIn, CloudCover, Events, WindDirDegrees
2012-9-1,89,80,71,72,68,63,83,71,52,30.01,29.98,29.95,10,10,7,15,6,20,0.00,1,,28
2012-9-2,89,74,60,70,64,55,88,69,43,29.99,29.94,29.89,10,10,10,8,2,,0.00,1,,128
2012-9-3,87,76,66,75,69,61,88,77,58,29.98,29.91,29.85,10,9,2,14,2,,0.00,1,Rain,66
2012-9-4,95,80,66,75,70,63,88,72,49,29.90,29.84,29.75,10,9,2,9,2,,0.00,1,,179
2012-9-5,89,74,60,72,59,45,88,59,21,29.95,29.85,29.73,10,10,7,15,3,22,0.00,1,Rain,341
2012-9-6,87,69,51,64,54,46,88,59,27,30.02,29.93,29.80,10,10,7,14,2,22,0.00,0,,142
2012-9-7,73,65,55,64,57,46,83,67,41,30.11,29.93,29.76,10,10,10,18,8,25,0.00,2,,338
2012-9-8,84,64,44,52,40,19,87,51,9,30.17,30.08,29.95,10,10,7,17,4,24,0.00,1,,293
2012-9-9,78,63,48,52,46,39,82,58,24,30.24,30.16,30.07,10,10,7,9,5,16,0.00,1,,29
2012-9-10,84,65,46,54,47,41,88,57,23,30.16,30.06,29.94,10,10,7,20,5,26,0.00,1,,175
2012-9-11,93,76,59,55,50,39,77,46,15,29.98,29.94,29.88,10,10,10,24,10,31,0.00,1,,176
2012-9-12,84,70,57,63,55,37,88,59,33,30.25,30.05,29.94,10,10,5,24,8,33,0.67,3,Rain,91
2012-9-13,66,58,51,54,50,46,88,80,56,30.42,30.36,30.27,10,10,10,21,9,30,0.58,3,Rain,29
2012-9-14,78,61,44,54,44,34,88,62,21,30.40,30.35,30.30,10,8,0,13,2,,0.00,1,Fog,195
2012-9-15,78,61,44,54,47,39,87,63,30,30.31,30.22,30.11,10,10,10,15,2,18,0.00,1,,168
2012-9-16,77,65,53,63,57,48,88,77,61,30.11,30.02,29.94,10,10,5,14,2,17,0.00,4,,199
2012-9-17,66,56,46,61,51,43,94,80,45,30.05,29.97,29.92,10,6,0,17,3,28,0.00,5,Fog-Rain,2
2012-9-18,69,53,37,45,36,25,87,57,18,30.13,30.06,29.97,10,10,7,9,3,,0.00,1,,285
2012-9-19,87,69,51,52,43,25,77,46,12,30.00,29.88,29.77,10,10,10,21,8,28,0.00,1,,205
2012-9-20,75,60,46,52,40,18,87,56,13,30.07,30.01,29.96,10,9,2,15,2,18,0.00,1,Rain,314
2012-9-21,77,62,44,52,39,18,87,52,11,29.96,29.87,29.81,10,10,10,23,5,30,0.00,1,,305
2012-9-22,64,50,35,41,30,18,81,48,16,30.29,30.19,29.93,10,10,7,16,6,24,0.00,0,,347
2012-9-23,69,51,33,43,30,19,87,55,16,30.36,30.29,30.22,10,10,10,8,1,,0.00,1,,28
2012-9-24,75,58,41,54,41,30,87,58,19,30.22,30.03,29.83,10,10,5,12,2,16,0.00,1,,165
2012-9-25,84,68,51,55,48,37,82,57,19,29.91,29.84,29.80,10,10,7,7,2,,0.00,0,,37
2012-9-26,75,60,46,46,39,23,82,52,14,30.15,30.04,29.89,10,10,5,9,3,,0.00,0,,39
2012-9-27,78,58,39,43,30,-11,81,52,4,30.23,30.17,30.12,10,10,10,8,1,,0.00,0,,55
2012-9-28,75,58,41,55,42,34,87,62,22,30.23,30.17,30.13,10,10,5,9,1,,0.00,1,,136
2012-9-29,80,60,39,48,39,27,87,57,14,30.20,30.12,30.05,10,9,5,7,0,,0.00,1,,102
2012-9-30,82,64,46,50,41,28,87,54,14,30.05,29.97,29.90,10,10,7,6,1,,0.00,1,,70